Terminal Aerodrome Forecast
Issued by NWS Goodland, KS

Home | Current Version | Previous Version | Text Only | Print | Product List | Glossary On
Versions: 1 2 3 4 5 6 7 8 9 10 11 12 13
000
FTUS43 KGLD 201736
TAFGLD
TAF
KGLD 201736Z 2018/2118 VRB05KT P6SM SCT250
     FM202300 13007KT P6SM BKN250
     FM210300 19009KT P6SM BKN150=

USA.gov is the U.S. government's official web portal to all federal, state and local government web resources and services.